sensor_id;sensor_type;location;lat;lon;timestamp;temperature;humidity
65369;HTU21D;51970;53.484;49.488;2024-02-26T00:00:41;-13.14;64.76
65369;HTU21D;51970;53.484;49.488;2024-02-26T00:03:07;-13.18;64.68
65369;HTU21D;51970;53.484;49.488;2024-02-26T00:05:33;-13.14;64.76
65369;HTU21D;51970;53.484;49.488;2024-02-26T00:07:59;-13.13;64.59
65369;HTU21D;51970;53.484;49.488;2024-02-26T00:10:26;-13.07;64.42
65369;HTU21D;51970;53.484;49.488;2024-02-26T00:12:52;-13.14;64.31
65369;HTU21D;51970;53.484;49.488;2024-02-26T00:15:18;-13.08;64.59
65369;HTU21D;51970;53.484;49.488;2024-02-26T00:17:44;-13.15;64.50
65369;HTU21D;51970;53.484;49.488;2024-02-26T00:20:11;-13.14;64.66
65369;HTU21D;51970;53.484;49.488;2024-02-26T00:22:37;-13.21;64.43
65369;HTU21D;51970;53.484;49.488;2024-02-26T00:25:04;-13.24;64.35
65369;HTU21D;51970;53.484;49.488;2024-02-26T00:27:30;-13.21;64.59
65369;HTU21D;51970;53.484;49.488;2024-02-26T00:29:56;-13.24;64.21
65369;HTU21D;51970;53.484;49.488;2024-02-26T00:32:22;-13.29;64.22
65369;HTU21D;51970;53.484;49.488;2024-02-26T00:34:48;-13.40;64.51
65369;HTU21D;51970;53.484;49.488;2024-02-26T00:37:14;-13.34;64.64
65369;HTU21D;51970;53.484;49.488;2024-02-26T00:39:40;-13.49;64.80
65369;HTU21D;51970;53.484;49.488;2024-02-26T00:42:06;-13.65;64.80
65369;HTU21D;51970;53.484;49.488;2024-02-26T00:44:32;-13.67;65.08
65369;HTU21D;51970;53.484;49.488;2024-02-26T00:46:58;-13.71;65.01
65369;HTU21D;51970;53.484;49.488;2024-02-26T00:49:25;-13.74;65.11
65369;HTU21D;51970;53.484;49.488;2024-02-26T00:51:51;-13.72;65.62
65369;HTU21D;51970;53.484;49.488;2024-02-26T00:54:17;-13.72;65.92
65369;HTU21D;51970;53.484;49.488;2024-02-26T00:56:43;-13.80;65.53
65369;HTU21D;51970;53.484;49.488;2024-02-26T00:59:09;-13.76;65.52
65369;HTU21D;51970;53.484;49.488;2024-02-26T01:01:35;-13.77;65.57
65369;HTU21D;51970;53.484;49.488;2024-02-26T01:04:02;-13.84;65.52
65369;HTU21D;51970;53.484;49.488;2024-02-26T01:06:29;-13.77;65.46
65369;HTU21D;51970;53.484;49.488;2024-02-26T01:08:55;-13.71;65.18
65369;HTU21D;51970;53.484;49.488;2024-02-26T01:11:21;-13.55;64.80
65369;HTU21D;51970;53.484;49.488;2024-02-26T01:13:47;-13.66;65.04
65369;HTU21D;51970;53.484;49.488;2024-02-26T01:16:13;-13.70;65.45
65369;HTU21D;51970;53.484;49.488;2024-02-26T01:18:39;-13.74;65.55
65369;HTU21D;51970;53.484;49.488;2024-02-26T01:21:05;-13.76;65.68
65369;HTU21D;51970;53.484;49.488;2024-02-26T01:23:34;-13.81;66.03
65369;HTU21D;51970;53.484;49.488;2024-02-26T01:26:01;-13.80;66.45
65369;HTU21D;51970;53.484;49.488;2024-02-26T01:28:28;-13.86;66.49
65369;HTU21D;51970;53.484;49.488;2024-02-26T01:30:54;-13.85;66.65
65369;HTU21D;51970;53.484;49.488;2024-02-26T01:33:20;-13.90;66.40
65369;HTU21D;51970;53.484;49.488;2024-02-26T01:35:46;-13.77;66.76
65369;HTU21D;51970;53.484;49.488;2024-02-26T01:38:12;-13.88;66.50
65369;HTU21D;51970;53.484;49.488;2024-02-26T01:40:38;-13.84;66.43
65369;HTU21D;51970;53.484;49.488;2024-02-26T01:43:04;-13.71;66.57
65369;HTU21D;51970;53.484;49.488;2024-02-26T01:45:30;-13.69;65.95
65369;HTU21D;51970;53.484;49.488;2024-02-26T01:47:56;-13.76;65.38
65369;HTU21D;51970;53.484;49.488;2024-02-26T01:50:23;-13.75;65.18
65369;HTU21D;51970;53.484;49.488;2024-02-26T01:52:50;-13.77;65.33
65369;HTU21D;51970;53.484;49.488;2024-02-26T01:55:18;-13.63;65.36
65369;HTU21D;51970;53.484;49.488;2024-02-26T01:57:46;-13.81;64.92
65369;HTU21D;51970;53.484;49.488;2024-02-26T02:00:14;-13.57;64.83
65369;HTU21D;51970;53.484;49.488;2024-02-26T02:02:41;-13.74;64.55
65369;HTU21D;51970;53.484;49.488;2024-02-26T02:05:08;-13.72;64.53
65369;HTU21D;51970;53.484;49.488;2024-02-26T02:07:36;-13.66;63.96
65369;HTU21D;51970;53.484;49.488;2024-02-26T02:10:02;-13.68;63.61
65369;HTU21D;51970;53.484;49.488;2024-02-26T02:12:30;-13.76;63.78
65369;HTU21D;51970;53.484;49.488;2024-02-26T02:14:59;-13.77;63.76
65369;HTU21D;51970;53.484;49.488;2024-02-26T02:17:25;-13.70;63.89
65369;HTU21D;51970;53.484;49.488;2024-02-26T02:19:51;-13.65;63.53
65369;HTU21D;51970;53.484;49.488;2024-02-26T02:22:17;-13.65;62.92
65369;HTU21D;51970;53.484;49.488;2024-02-26T02:24:44;-13.71;63.18
65369;HTU21D;51970;53.484;49.488;2024-02-26T02:27:10;-13.67;63.45
65369;HTU21D;51970;53.484;49.488;2024-02-26T02:29:36;-13.76;63.06
65369;HTU21D;51970;53.484;49.488;2024-02-26T02:32:03;-13.80;63.19
65369;HTU21D;51970;53.484;49.488;2024-02-26T02:34:31;-13.84;63.13
65369;HTU21D;51970;53.484;49.488;2024-02-26T02:36:58;-13.87;62.98
65369;HTU21D;51970;53.484;49.488;2024-02-26T02:39:24;-13.91;63.10
65369;HTU21D;51970;53.484;49.488;2024-02-26T02:41:51;-13.83;62.98
65369;HTU21D;51970;53.484;49.488;2024-02-26T02:44:17;-13.82;62.86
65369;HTU21D;51970;53.484;49.488;2024-02-26T02:46:46;-13.74;62.95
65369;HTU21D;51970;53.484;49.488;2024-02-26T02:49:12;-13.68;62.36
65369;HTU21D;51970;53.484;49.488;2024-02-26T02:51:40;-13.67;62.40
65369;HTU21D;51970;53.484;49.488;2024-02-26T02:54:06;-13.72;62.19
65369;HTU21D;51970;53.484;49.488;2024-02-26T02:56:32;-13.66;62.02
65369;HTU21D;51970;53.484;49.488;2024-02-26T02:58:58;-13.57;61.96
65369;HTU21D;51970;53.484;49.488;2024-02-26T03:01:24;-13.56;61.53
65369;HTU21D;51970;53.484;49.488;2024-02-26T03:03:50;-13.48;61.56
65369;HTU21D;51970;53.484;49.488;2024-02-26T03:06:16;-13.55;61.03
65369;HTU21D;51970;53.484;49.488;2024-02-26T03:08:43;-13.57;60.98
65369;HTU21D;51970;53.484;49.488;2024-02-26T03:11:13;-13.59;60.90
65369;HTU21D;51970;53.484;49.488;2024-02-26T03:13:41;-13.53;61.12
65369;HTU21D;51970;53.484;49.488;2024-02-26T03:16:07;-13.69;61.24
65369;HTU21D;51970;53.484;49.488;2024-02-26T03:18:34;-13.61;60.99
65369;HTU21D;51970;53.484;49.488;2024-02-26T03:21:00;-13.57;60.96
65369;HTU21D;51970;53.484;49.488;2024-02-26T03:23:26;-13.59;60.96
65369;HTU21D;51970;53.484;49.488;2024-02-26T03:25:52;-13.41;60.68
65369;HTU21D;51970;53.484;49.488;2024-02-26T03:28:18;-13.55;60.65
65369;HTU21D;51970;53.484;49.488;2024-02-26T03:30:44;-13.71;60.47
65369;HTU21D;51970;53.484;49.488;2024-02-26T03:33:10;-13.67;60.30
65369;HTU21D;51970;53.484;49.488;2024-02-26T03:35:36;-13.67;60.19
65369;HTU21D;51970;53.484;49.488;2024-02-26T03:38:03;-13.59;59.67
65369;HTU21D;51970;53.484;49.488;2024-02-26T03:40:28;-13.56;59.49
65369;HTU21D;51970;53.484;49.488;2024-02-26T03:42:55;-13.57;59.41
65369;HTU21D;51970;53.484;49.488;2024-02-26T03:45:23;-13.52;58.65
65369;HTU21D;51970;53.484;49.488;2024-02-26T03:47:49;-13.39;58.30
65369;HTU21D;51970;53.484;49.488;2024-02-26T03:50:15;-13.39;58.32
65369;HTU21D;51970;53.484;49.488;2024-02-26T03:52:42;-13.38;58.03
65369;HTU21D;51970;53.484;49.488;2024-02-26T03:55:08;-13.27;58.05
65369;HTU21D;51970;53.484;49.488;2024-02-26T03:57:36;-13.14;57.71
65369;HTU21D;51970;53.484;49.488;2024-02-26T04:00:02;-13.23;57.56
65369;HTU21D;51970;53.484;49.488;2024-02-26T04:02:28;-13.10;57.71
65369;HTU21D;51970;53.484;49.488;2024-02-26T04:04:55;-12.93;57.10
65369;HTU21D;51970;53.484;49.488;2024-02-26T04:07:21;-12.78;56.57
65369;HTU21D;51970;53.484;49.488;2024-02-26T04:09:47;-12.72;55.93
65369;HTU21D;51970;53.484;49.488;2024-02-26T04:12:13;-12.60;55.59
65369;HTU21D;51970;53.484;49.488;2024-02-26T04:14:40;-12.57;54.70
65369;HTU21D;51970;53.484;49.488;2024-02-26T04:17:06;-12.45;54.58
65369;HTU21D;51970;53.484;49.488;2024-02-26T04:19:32;-12.22;54.30
65369;HTU21D;51970;53.484;49.488;2024-02-26T04:21:58;-12.33;54.15
65369;HTU21D;51970;53.484;49.488;2024-02-26T04:24:25;-12.32;54.10
65369;HTU21D;51970;53.484;49.488;2024-02-26T04:26:51;-12.27;53.36
65369;HTU21D;51970;53.484;49.488;2024-02-26T04:29:17;-12.14;53.42
65369;HTU21D;51970;53.484;49.488;2024-02-26T04:31:43;-12.07;52.69
65369;HTU21D;51970;53.484;49.488;2024-02-26T04:34:11;-11.98;52.67
65369;HTU21D;51970;53.484;49.488;2024-02-26T04:36:37;-11.98;52.94
65369;HTU21D;51970;53.484;49.488;2024-02-26T04:39:03;-11.94;52.11
65369;HTU21D;51970;53.484;49.488;2024-02-26T04:41:29;-11.86;52.22
65369;HTU21D;51970;53.484;49.488;2024-02-26T04:43:55;-11.82;52.02
65369;HTU21D;51970;53.484;49.488;2024-02-26T04:46:21;-11.77;52.17
65369;HTU21D;51970;53.484;49.488;2024-02-26T04:48:48;-11.70;52.08
65369;HTU21D;51970;53.484;49.488;2024-02-26T04:51:14;-11.78;51.85
65369;HTU21D;51970;53.484;49.488;2024-02-26T04:53:40;-11.68;51.78
65369;HTU21D;51970;53.484;49.488;2024-02-26T04:56:06;-11.58;51.94
65369;HTU21D;51970;53.484;49.488;2024-02-26T04:58:32;-11.46;51.70
65369;HTU21D;51970;53.484;49.488;2024-02-26T05:01:00;-11.49;51.76
65369;HTU21D;51970;53.484;49.488;2024-02-26T05:03:26;-11.44;51.91
65369;HTU21D;51970;53.484;49.488;2024-02-26T05:05:52;-11.36;51.87
65369;HTU21D;51970;53.484;49.488;2024-02-26T05:08:18;-11.21;52.14
65369;HTU21D;51970;53.484;49.488;2024-02-26T05:10:45;-11.05;51.66
65369;HTU21D;51970;53.484;49.488;2024-02-26T05:13:11;-11.37;51.80
65369;HTU21D;51970;53.484;49.488;2024-02-26T05:15:40;-11.39;52.14
65369;HTU21D;51970;53.484;49.488;2024-02-26T05:18:06;-11.31;51.88
65369;HTU21D;51970;53.484;49.488;2024-02-26T05:20:33;-11.18;51.92
65369;HTU21D;51970;53.484;49.488;2024-02-26T05:23:03;-11.12;51.34
65369;HTU21D;51970;53.484;49.488;2024-02-26T05:25:30;-10.95;51.55
65369;HTU21D;51970;53.484;49.488;2024-02-26T05:27:56;-11.16;51.59
65369;HTU21D;51970;53.484;49.488;2024-02-26T05:30:22;-11.19;51.79
65369;HTU21D;51970;53.484;49.488;2024-02-26T05:32:48;-11.12;52.03
65369;HTU21D;51970;53.484;49.488;2024-02-26T05:35:14;-11.02;51.22
65369;HTU21D;51970;53.484;49.488;2024-02-26T05:37:40;-11.10;51.67
65369;HTU21D;51970;53.484;49.488;2024-02-26T05:40:07;-11.01;52.24
65369;HTU21D;51970;53.484;49.488;2024-02-26T05:42:33;-10.71;51.41
65369;HTU21D;51970;53.484;49.488;2024-02-26T05:44:59;-10.76;50.90
65369;HTU21D;51970;53.484;49.488;2024-02-26T05:47:25;-10.78;50.81
65369;HTU21D;51970;53.484;49.488;2024-02-26T05:49:51;-10.72;50.71
65369;HTU21D;51970;53.484;49.488;2024-02-26T05:52:17;-10.67;50.66
65369;HTU21D;51970;53.484;49.488;2024-02-26T05:54:43;-10.68;50.76
65369;HTU21D;51970;53.484;49.488;2024-02-26T05:57:09;-10.76;51.03
65369;HTU21D;51970;53.484;49.488;2024-02-26T05:59:35;-10.75;51.51
65369;HTU21D;51970;53.484;49.488;2024-02-26T06:02:01;-10.62;50.87
65369;HTU21D;51970;53.484;49.488;2024-02-26T06:04:27;-10.50;51.04
65369;HTU21D;51970;53.484;49.488;2024-02-26T06:06:53;-10.40;51.35
65369;HTU21D;51970;53.484;49.488;2024-02-26T06:09:19;-10.34;50.56
65369;HTU21D;51970;53.484;49.488;2024-02-26T06:11:45;-10.28;50.65
65369;HTU21D;51970;53.484;49.488;2024-02-26T06:14:12;-10.15;50.30
65369;HTU21D;51970;53.484;49.488;2024-02-26T06:16:45;-10.13;50.11
65369;HTU21D;51970;53.484;49.488;2024-02-26T06:19:11;-10.00;50.42
65369;HTU21D;51970;53.484;49.488;2024-02-26T06:21:37;-9.78;51.18
65369;HTU21D;51970;53.484;49.488;2024-02-26T06:24:03;-9.46;50.54
65369;HTU21D;51970;53.484;49.488;2024-02-26T06:26:29;-9.53;50.52
65369;HTU21D;51970;53.484;49.488;2024-02-26T06:28:59;-9.44;49.89
65369;HTU21D;51970;53.484;49.488;2024-02-26T06:31:25;-9.46;49.66
65369;HTU21D;51970;53.484;49.488;2024-02-26T06:33:53;-9.63;50.18
65369;HTU21D;51970;53.484;49.488;2024-02-26T06:36:20;-9.69;50.27
65369;HTU21D;51970;53.484;49.488;2024-02-26T06:38:46;-9.60;51.14
65369;HTU21D;51970;53.484;49.488;2024-02-26T06:41:12;-9.25;51.08
65369;HTU21D;51970;53.484;49.488;2024-02-26T06:43:38;-9.19;49.78
65369;HTU21D;51970;53.484;49.488;2024-02-26T06:46:06;-9.34;50.16
65369;HTU21D;51970;53.484;49.488;2024-02-26T06:48:32;-9.18;50.85
65369;HTU21D;51970;53.484;49.488;2024-02-26T06:50:58;-9.03;50.35
65369;HTU21D;51970;53.484;49.488;2024-02-26T06:53:24;-8.90;50.94
65369;HTU21D;51970;53.484;49.488;2024-02-26T06:55:50;-8.55;50.76
65369;HTU21D;51970;53.484;49.488;2024-02-26T06:58:16;-8.46;49.16
65369;HTU21D;51970;53.484;49.488;2024-02-26T07:00:42;-8.65;47.99
65369;HTU21D;51970;53.484;49.488;2024-02-26T07:03:08;-8.90;48.37
65369;HTU21D;51970;53.484;49.488;2024-02-26T07:05:34;-8.93;48.66
65369;HTU21D;51970;53.484;49.488;2024-02-26T07:08:00;-8.83;48.60
65369;HTU21D;51970;53.484;49.488;2024-02-26T07:10:26;-8.46;47.99
65369;HTU21D;51970;53.484;49.488;2024-02-26T07:12:52;-8.23;47.42
65369;HTU21D;51970;53.484;49.488;2024-02-26T07:15:18;-8.22;46.85
65369;HTU21D;51970;53.484;49.488;2024-02-26T07:17:44;-8.13;46.94
65369;HTU21D;51970;53.484;49.488;2024-02-26T07:20:13;-8.21;46.68
65369;HTU21D;51970;53.484;49.488;2024-02-26T07:22:40;-8.30;46.67
65369;HTU21D;51970;53.484;49.488;2024-02-26T07:25:08;-7.97;47.83
65369;HTU21D;51970;53.484;49.488;2024-02-26T07:27:35;-8.06;46.65
65369;HTU21D;51970;53.484;49.488;2024-02-26T07:30:01;-7.99;46.66
65369;HTU21D;51970;53.484;49.488;2024-02-26T07:32:27;-7.87;46.69
65369;HTU21D;51970;53.484;49.488;2024-02-26T07:34:53;-7.74;46.99
65369;HTU21D;51970;53.484;49.488;2024-02-26T07:37:19;-7.50;47.13
65369;HTU21D;51970;53.484;49.488;2024-02-26T07:39:45;-7.32;45.47
65369;HTU21D;51970;53.484;49.488;2024-02-26T07:42:11;-7.08;45.82
65369;HTU21D;51970;53.484;49.488;2024-02-26T07:44:37;-6.88;45.08
65369;HTU21D;51970;53.484;49.488;2024-02-26T07:47:03;-7.01;44.82
65369;HTU21D;51970;53.484;49.488;2024-02-26T07:49:29;-7.00;45.86
65369;HTU21D;51970;53.484;49.488;2024-02-26T07:51:55;-6.88;45.98
65369;HTU21D;51970;53.484;49.488;2024-02-26T07:54:23;-6.77;45.28
65369;HTU21D;51970;53.484;49.488;2024-02-26T07:56:49;-6.88;44.96
65369;HTU21D;51970;53.484;49.488;2024-02-26T07:59:15;-6.74;45.16
65369;HTU21D;51970;53.484;49.488;2024-02-26T08:01:41;-6.77;45.09
65369;HTU21D;51970;53.484;49.488;2024-02-26T08:04:07;-6.64;46.37
65369;HTU21D;51970;53.484;49.488;2024-02-26T08:06:33;-6.41;45.06
65369;HTU21D;51970;53.484;49.488;2024-02-26T08:08:59;-6.47;44.81
65369;HTU21D;51970;53.484;49.488;2024-02-26T08:11:25;-6.55;45.38
65369;HTU21D;51970;53.484;49.488;2024-02-26T08:13:51;-6.59;45.74
65369;HTU21D;51970;53.484;49.488;2024-02-26T08:16:17;-6.24;47.08
65369;HTU21D;51970;53.484;49.488;2024-02-26T08:18:43;-6.11;44.82
65369;HTU21D;51970;53.484;49.488;2024-02-26T08:21:10;-6.02;45.11
65369;HTU21D;51970;53.484;49.488;2024-02-26T08:23:35;-6.13;44.67
65369;HTU21D;51970;53.484;49.488;2024-02-26T08:26:02;-6.30;45.85
65369;HTU21D;51970;53.484;49.488;2024-02-26T08:28:30;-6.20;46.14
65369;HTU21D;51970;53.484;49.488;2024-02-26T08:30:55;-6.31;46.06
65369;HTU21D;51970;53.484;49.488;2024-02-26T08:33:21;-6.41;46.19
65369;HTU21D;51970;53.484;49.488;2024-02-26T08:35:47;-6.38;47.48
65369;HTU21D;51970;53.484;49.488;2024-02-26T08:38:14;-6.33;46.07
65369;HTU21D;51970;53.484;49.488;2024-02-26T08:40:40;-6.34;47.43
65369;HTU21D;51970;53.484;49.488;2024-02-26T08:43:06;-6.20;47.13
65369;HTU21D;51970;53.484;49.488;2024-02-26T08:45:32;-6.13;46.99
65369;HTU21D;51970;53.484;49.488;2024-02-26T08:47:58;-6.04;46.26
65369;HTU21D;51970;53.484;49.488;2024-02-26T08:50:24;-6.03;46.83
65369;HTU21D;51970;53.484;49.488;2024-02-26T08:52:50;-5.93;47.67
65369;HTU21D;51970;53.484;49.488;2024-02-26T08:55:19;-5.85;47.31
65369;HTU21D;51970;53.484;49.488;2024-02-26T08:57:45;-5.74;47.57
65369;HTU21D;51970;53.484;49.488;2024-02-26T09:00:11;-5.30;47.27
65369;HTU21D;51970;53.484;49.488;2024-02-26T09:02:38;-5.70;47.40
65369;HTU21D;51970;53.484;49.488;2024-02-26T09:05:08;-5.55;48.69
65369;HTU21D;51970;53.484;49.488;2024-02-26T09:07:34;-5.43;48.13
65369;HTU21D;51970;53.484;49.488;2024-02-26T09:10:00;-5.16;47.44
65369;HTU21D;51970;53.484;49.488;2024-02-26T09:12:26;-5.07;47.01
65369;HTU21D;51970;53.484;49.488;2024-02-26T09:14:53;-5.23;47.04
65369;HTU21D;51970;53.484;49.488;2024-02-26T09:17:19;-5.32;46.82
65369;HTU21D;51970;53.484;49.488;2024-02-26T09:19:45;-5.44;47.12
65369;HTU21D;51970;53.484;49.488;2024-02-26T09:22:11;-5.40;47.38
65369;HTU21D;51970;53.484;49.488;2024-02-26T09:24:37;-5.48;47.61
65369;HTU21D;51970;53.484;49.488;2024-02-26T09:27:03;-5.35;48.00
65369;HTU21D;51970;53.484;49.488;2024-02-26T09:29:29;-5.24;47.22
65369;HTU21D;51970;53.484;49.488;2024-02-26T09:31:55;-5.26;47.25
65369;HTU21D;51970;53.484;49.488;2024-02-26T09:34:21;-5.19;47.31
65369;HTU21D;51970;53.484;49.488;2024-02-26T09:36:48;-4.99;47.90
65369;HTU21D;51970;53.484;49.488;2024-02-26T09:39:14;-5.00;47.01
65369;HTU21D;51970;53.484;49.488;2024-02-26T09:41:46;-5.12;46.80
65369;HTU21D;51970;53.484;49.488;2024-02-26T09:44:15;-5.33;47.31
65369;HTU21D;51970;53.484;49.488;2024-02-26T09:46:44;-5.46;47.19
65369;HTU21D;51970;53.484;49.488;2024-02-26T09:49:12;-5.61;47.91
65369;HTU21D;51970;53.484;49.488;2024-02-26T09:51:38;-5.53;48.57
65369;HTU21D;51970;53.484;49.488;2024-02-26T09:54:07;-5.40;48.31
65369;HTU21D;51970;53.484;49.488;2024-02-26T09:56:37;-5.47;48.50
65369;HTU21D;51970;53.484;49.488;2024-02-26T09:59:08;-5.44;48.27
65369;HTU21D;51970;53.484;49.488;2024-02-26T10:01:37;-5.29;49.05
65369;HTU21D;51970;53.484;49.488;2024-02-26T10:04:09;-5.18;47.89
65369;HTU21D;51970;53.484;49.488;2024-02-26T10:06:37;-5.16;47.66
65369;HTU21D;51970;53.484;49.488;2024-02-26T10:09:04;-5.13;47.36
65369;HTU21D;51970;53.484;49.488;2024-02-26T10:11:33;-5.05;48.33
65369;HTU21D;51970;53.484;49.488;2024-02-26T10:14:00;-5.13;48.25
65369;HTU21D;51970;53.484;49.488;2024-02-26T10:16:26;-5.08;49.02
65369;HTU21D;51970;53.484;49.488;2024-02-26T10:18:53;-5.14;49.18
65369;HTU21D;51970;53.484;49.488;2024-02-26T10:21:22;-5.12;49.19
65369;HTU21D;51970;53.484;49.488;2024-02-26T10:23:48;-5.11;49.77
65369;HTU21D;51970;53.484;49.488;2024-02-26T10:26:15;-5.12;50.11
65369;HTU21D;51970;53.484;49.488;2024-02-26T10:28:42;-4.95;49.75
65369;HTU21D;51970;53.484;49.488;2024-02-26T10:31:10;-5.12;50.27
65369;HTU21D;51970;53.484;49.488;2024-02-26T10:33:37;-5.11;50.82
65369;HTU21D;51970;53.484;49.488;2024-02-26T10:36:07;-5.09;50.91
65369;HTU21D;51970;53.484;49.488;2024-02-26T10:38:34;-4.98;50.66
65369;HTU21D;51970;53.484;49.488;2024-02-26T10:41:02;-4.97;50.37
65369;HTU21D;51970;53.484;49.488;2024-02-26T10:43:29;-4.85;50.70
65369;HTU21D;51970;53.484;49.488;2024-02-26T10:45:55;-4.79;50.34
65369;HTU21D;51970;53.484;49.488;2024-02-26T10:48:22;-4.83;50.71
65369;HTU21D;51970;53.484;49.488;2024-02-26T10:50:48;-4.93;50.88
65369;HTU21D;51970;53.484;49.488;2024-02-26T10:53:23;-5.04;50.98
65369;HTU21D;51970;53.484;49.488;2024-02-26T10:56:02;-5.10;51.44
65369;HTU21D;51970;53.484;49.488;2024-02-26T10:58:29;-5.02;51.24
65369;HTU21D;51970;53.484;49.488;2024-02-26T11:00:57;-5.30;52.12
65369;HTU21D;51970;53.484;49.488;2024-02-26T11:03:25;-5.14;51.79
65369;HTU21D;51970;53.484;49.488;2024-02-26T11:05:51;-5.10;52.01
65369;HTU21D;51970;53.484;49.488;2024-02-26T11:08:19;-4.87;52.23
65369;HTU21D;51970;53.484;49.488;2024-02-26T11:10:48;-5.07;51.89
65369;HTU21D;51970;53.484;49.488;2024-02-26T11:13:15;-5.15;52.57
65369;HTU21D;51970;53.484;49.488;2024-02-26T11:15:46;-5.19;52.97
65369;HTU21D;51970;53.484;49.488;2024-02-26T11:18:19;-5.16;52.54
65369;HTU21D;51970;53.484;49.488;2024-02-26T11:20:46;-5.14;53.02
65369;HTU21D;51970;53.484;49.488;2024-02-26T11:23:13;-4.82;52.42
65369;HTU21D;51970;53.484;49.488;2024-02-26T11:25:43;-5.12;52.56
65369;HTU21D;51970;53.484;49.488;2024-02-26T11:28:14;-4.91;53.53
65369;HTU21D;51970;53.484;49.488;2024-02-26T11:30:46;-5.08;53.05
65369;HTU21D;51970;53.484;49.488;2024-02-26T11:33:14;-5.07;53.69
65369;HTU21D;51970;53.484;49.488;2024-02-26T11:35:41;-4.99;53.24
65369;HTU21D;51970;53.484;49.488;2024-02-26T11:38:07;-4.97;53.84
65369;HTU21D;51970;53.484;49.488;2024-02-26T11:40:38;-4.86;53.66
65369;HTU21D;51970;53.484;49.488;2024-02-26T11:43:07;-5.00;54.07
65369;HTU21D;51970;53.484;49.488;2024-02-26T11:48:12;-5.08;53.95
65369;HTU21D;51970;53.484;49.488;2024-02-26T11:50:52;-5.03;54.07
65369;HTU21D;51970;53.484;49.488;2024-02-26T11:58:43;-5.22;55.08
65369;HTU21D;51970;53.484;49.488;2024-02-26T12:01:35;-5.23;55.16
65369;HTU21D;51970;53.484;49.488;2024-02-26T12:04:02;-5.12;55.25
65369;HTU21D;51970;53.484;49.488;2024-02-26T12:06:30;-4.98;54.73
65369;HTU21D;51970;53.484;49.488;2024-02-26T12:08:56;-4.89;54.60
65369;HTU21D;51970;53.484;49.488;2024-02-26T12:11:27;-5.18;54.87
65369;HTU21D;51970;53.484;49.488;2024-02-26T12:13:55;-5.18;54.01
65369;HTU21D;51970;53.484;49.488;2024-02-26T12:16:39;-5.18;54.62
65369;HTU21D;51970;53.484;49.488;2024-02-26T12:19:07;-5.27;54.56
65369;HTU21D;51970;53.484;49.488;2024-02-26T12:21:37;-5.33;55.48
65369;HTU21D;51970;53.484;49.488;2024-02-26T12:24:15;-5.33;55.17
65369;HTU21D;51970;53.484;49.488;2024-02-26T12:26:44;-5.32;55.06
65369;HTU21D;51970;53.484;49.488;2024-02-26T12:29:10;-5.37;54.87
65369;HTU21D;51970;53.484;49.488;2024-02-26T12:31:37;-5.44;55.58
65369;HTU21D;51970;53.484;49.488;2024-02-26T12:34:04;-5.54;55.20
65369;HTU21D;51970;53.484;49.488;2024-02-26T12:36:31;-5.74;55.66
65369;HTU21D;51970;53.484;49.488;2024-02-26T12:38:58;-5.85;55.87
65369;HTU21D;51970;53.484;49.488;2024-02-26T12:41:26;-5.90;56.39
65369;HTU21D;51970;53.484;49.488;2024-02-26T12:43:53;-5.96;56.52
65369;HTU21D;51970;53.484;49.488;2024-02-26T12:46:20;-5.92;56.84
65369;HTU21D;51970;53.484;49.488;2024-02-26T12:48:46;-5.99;57.12
65369;HTU21D;51970;53.484;49.488;2024-02-26T12:51:14;-5.96;56.81
65369;HTU21D;51970;53.484;49.488;2024-02-26T12:53:41;-6.34;57.54
65369;HTU21D;51970;53.484;49.488;2024-02-26T12:56:09;-6.26;57.66
65369;HTU21D;51970;53.484;49.488;2024-02-26T12:58:36;-6.56;58.02
65369;HTU21D;51970;53.484;49.488;2024-02-26T13:01:04;-6.61;58.40
65369;HTU21D;51970;53.484;49.488;2024-02-26T13:03:32;-6.72;58.38
65369;HTU21D;51970;53.484;49.488;2024-02-26T13:05:59;-6.76;58.84
65369;HTU21D;51970;53.484;49.488;2024-02-26T13:08:25;-6.83;58.74
65369;HTU21D;51970;53.484;49.488;2024-02-26T13:10:51;-6.89;59.01
65369;HTU21D;51970;53.484;49.488;2024-02-26T13:13:19;-6.90;59.30
65369;HTU21D;51970;53.484;49.488;2024-02-26T13:15:45;-7.10;59.43
65369;HTU21D;51970;53.484;49.488;2024-02-26T13:18:13;-7.09;59.61
65369;HTU21D;51970;53.484;49.488;2024-02-26T13:20:41;-7.17;59.75
65369;HTU21D;51970;53.484;49.488;2024-02-26T13:23:11;-7.29;60.35
65369;HTU21D;51970;53.484;49.488;2024-02-26T13:25:38;-7.23;60.65
65369;HTU21D;51970;53.484;49.488;2024-02-26T14:33:57;-9.00;65.32
65369;HTU21D;51970;53.484;49.488;2024-02-26T14:36:23;-8.92;65.27
65369;HTU21D;51970;53.484;49.488;2024-02-26T14:38:49;-8.88;65.17
65369;HTU21D;51970;53.484;49.488;2024-02-26T14:41:16;-8.88;65.14
65369;HTU21D;51970;53.484;49.488;2024-02-26T14:43:42;-8.96;65.42
65369;HTU21D;51970;53.484;49.488;2024-02-26T14:46:08;-9.00;65.61
65369;HTU21D;51970;53.484;49.488;2024-02-26T14:48:34;-8.96;65.56
65369;HTU21D;51970;53.484;49.488;2024-02-26T14:51:00;-9.02;65.78
65369;HTU21D;51970;53.484;49.488;2024-02-26T14:53:26;-9.09;66.01
65369;HTU21D;51970;53.484;49.488;2024-02-26T14:55:52;-9.05;65.88
65369;HTU21D;51970;53.484;49.488;2024-02-26T14:58:19;-9.18;65.75
65369;HTU21D;51970;53.484;49.488;2024-02-26T15:00:45;-9.33;66.13
65369;HTU21D;51970;53.484;49.488;2024-02-26T15:03:11;-9.39;66.30
65369;HTU21D;51970;53.484;49.488;2024-02-26T15:05:37;-9.51;66.59
65369;HTU21D;51970;53.484;49.488;2024-02-26T15:08:03;-9.52;66.78
65369;HTU21D;51970;53.484;49.488;2024-02-26T15:10:30;-9.55;66.78
65369;HTU21D;51970;53.484;49.488;2024-02-26T15:12:56;-9.57;67.11
65369;HTU21D;51970;53.484;49.488;2024-02-26T15:15:22;-9.44;67.13
65369;HTU21D;51970;53.484;49.488;2024-02-26T15:17:49;-9.45;66.98
65369;HTU21D;51970;53.484;49.488;2024-02-26T15:20:16;-9.44;67.01
65369;HTU21D;51970;53.484;49.488;2024-02-26T15:22:42;-9.41;66.94
65369;HTU21D;51970;53.484;49.488;2024-02-26T15:25:08;-9.43;66.85
65369;HTU21D;51970;53.484;49.488;2024-02-26T15:27:34;-9.46;67.03
65369;HTU21D;51970;53.484;49.488;2024-02-26T15:30:01;-9.41;66.72
65369;HTU21D;51970;53.484;49.488;2024-02-26T15:32:28;-9.54;66.84
65369;HTU21D;51970;53.484;49.488;2024-02-26T15:34:54;-9.55;66.89
65369;HTU21D;51970;53.484;49.488;2024-02-26T15:37:20;-9.58;67.08
65369;HTU21D;51970;53.484;49.488;2024-02-26T15:39:47;-9.58;67.13
65369;HTU21D;51970;53.484;49.488;2024-02-26T15:42:13;-9.67;67.14
65369;HTU21D;51970;53.484;49.488;2024-02-26T15:44:40;-9.61;67.14
65369;HTU21D;51970;53.484;49.488;2024-02-26T15:47:06;-9.51;67.07
65369;HTU21D;51970;53.484;49.488;2024-02-26T15:49:32;-9.67;66.84
65369;HTU21D;51970;53.484;49.488;2024-02-26T15:51:59;-9.68;67.06
65369;HTU21D;51970;53.484;49.488;2024-02-26T15:54:26;-9.70;66.69
65369;HTU21D;51970;53.484;49.488;2024-02-26T15:56:53;-9.64;66.70
65369;HTU21D;51970;53.484;49.488;2024-02-26T15:59:19;-9.67;66.75
65369;HTU21D;51970;53.484;49.488;2024-02-26T16:01:46;-9.78;66.59
65369;HTU21D;51970;53.484;49.488;2024-02-26T16:04:13;-9.85;66.69
65369;HTU21D;51970;53.484;49.488;2024-02-26T16:06:40;-9.90;66.91